sensor_id;sensor_type;location;lat;lon;timestamp;noise_LAeq;noise_LA_min;noise_LA_max;noise_LA01;noise_LA95
63692;Laerm;49838;51.798;10.954;2024-02-28T00:02:26;28.84;26.76;39.31;;
63692;Laerm;49838;51.798;10.954;2024-02-28T00:04:54;29.52;26.81;40.94;;
63692;Laerm;49838;51.798;10.954;2024-02-28T00:07:21;28.59;26.95;34.09;;
63692;Laerm;49838;51.798;10.954;2024-02-28T00:09:48;28.03;26.68;30.96;;
63692;Laerm;49838;51.798;10.954;2024-02-28T00:12:16;27.90;26.69;29.07;;
63692;Laerm;49838;51.798;10.954;2024-02-28T00:14:43;27.98;26.56;40.24;;
63692;Laerm;49838;51.798;10.954;2024-02-28T00:17:11;28.54;26.64;33.81;;
63692;Laerm;49838;51.798;10.954;2024-02-28T00:19:40;28.59;26.57;31.57;;
63692;Laerm;49838;51.798;10.954;2024-02-28T00:22:08;28.13;26.69;31.40;;
63692;Laerm;49838;51.798;10.954;2024-02-28T00:24:36;28.52;26.41;37.41;;
63692;Laerm;49838;51.798;10.954;2024-02-28T00:27:03;29.17;26.71;39.46;;
63692;Laerm;49838;51.798;10.954;2024-02-28T00:29:30;28.73;26.72;35.26;;
63692;Laerm;49838;51.798;10.954;2024-02-28T00:31:57;28.26;26.60;33.68;;
63692;Laerm;49838;51.798;10.954;2024-02-28T00:34:25;33.41;26.71;55.16;;
63692;Laerm;49838;51.798;10.954;2024-02-28T00:36:53;31.31;26.89;49.23;;
63692;Laerm;49838;51.798;10.954;2024-02-28T00:39:20;29.85;26.67;39.59;;
63692;Laerm;49838;51.798;10.954;2024-02-28T00:41:48;28.13;26.85;30.36;;
63692;Laerm;49838;51.798;10.954;2024-02-28T00:44:15;28.63;26.68;35.50;;
63692;Laerm;49838;51.798;10.954;2024-02-28T00:46:42;28.35;26.88;35.93;;
63692;Laerm;49838;51.798;10.954;2024-02-28T00:49:09;28.63;26.96;43.25;;
63692;Laerm;49838;51.798;10.954;2024-02-28T00:51:37;47.69;27.28;64.71;;
63692;Laerm;49838;51.798;10.954;2024-02-28T00:54:05;28.23;26.87;33.71;;
63692;Laerm;49838;51.798;10.954;2024-02-28T00:56:34;28.14;26.78;35.58;;
63692;Laerm;49838;51.798;10.954;2024-02-28T00:59:01;28.15;26.63;40.52;;
63692;Laerm;49838;51.798;10.954;2024-02-28T01:01:28;30.26;27.46;43.42;;
63692;Laerm;49838;51.798;10.954;2024-02-28T01:03:56;30.22;27.10;39.13;;
63692;Laerm;49838;51.798;10.954;2024-02-28T01:06:23;30.02;27.03;38.78;;
63692;Laerm;49838;51.798;10.954;2024-02-28T01:08:50;29.00;26.58;33.95;;
63692;Laerm;49838;51.798;10.954;2024-02-28T01:11:19;28.13;26.57;33.09;;
63692;Laerm;49838;51.798;10.954;2024-02-28T01:13:46;28.09;26.80;30.74;;
63692;Laerm;49838;51.798;10.954;2024-02-28T01:16:13;33.78;27.08;49.11;;
63692;Laerm;49838;51.798;10.954;2024-02-28T01:18:40;30.51;27.66;40.91;;
63692;Laerm;49838;51.798;10.954;2024-02-28T01:21:08;28.39;27.05;31.59;;
63692;Laerm;49838;51.798;10.954;2024-02-28T01:23:35;28.37;26.86;32.67;;
63692;Laerm;49838;51.798;10.954;2024-02-28T01:26:03;29.19;26.87;35.66;;
63692;Laerm;49838;51.798;10.954;2024-02-28T01:28:33;29.05;27.41;34.53;;
63692;Laerm;49838;51.798;10.954;2024-02-28T01:31:00;28.62;27.05;38.67;;
63692;Laerm;49838;51.798;10.954;2024-02-28T01:33:27;28.41;27.03;32.88;;
63692;Laerm;49838;51.798;10.954;2024-02-28T01:35:55;29.24;26.75;35.24;;
63692;Laerm;49838;51.798;10.954;2024-02-28T01:38:22;29.16;27.51;30.98;;
63692;Laerm;49838;51.798;10.954;2024-02-28T01:40:49;29.11;27.35;34.35;;
63692;Laerm;49838;51.798;10.954;2024-02-28T01:43:16;28.77;27.32;30.90;;
63692;Laerm;49838;51.798;10.954;2024-02-28T01:45:45;28.99;27.16;33.61;;
63692;Laerm;49838;51.798;10.954;2024-02-28T01:48:12;29.13;27.42;33.07;;
63692;Laerm;49838;51.798;10.954;2024-02-28T01:50:41;28.74;27.46;30.27;;
63692;Laerm;49838;51.798;10.954;2024-02-28T01:53:09;29.16;27.30;33.27;;
63692;Laerm;49838;51.798;10.954;2024-02-28T01:55:37;32.24;27.70;41.59;;
63692;Laerm;49838;51.798;10.954;2024-02-28T01:58:05;29.56;28.03;32.37;;
63692;Laerm;49838;51.798;10.954;2024-02-28T02:00:33;29.00;27.31;32.39;;
63692;Laerm;49838;51.798;10.954;2024-02-28T02:03:02;28.73;27.31;34.60;;
63692;Laerm;49838;51.798;10.954;2024-02-28T02:05:30;29.03;27.27;34.80;;
63692;Laerm;49838;51.798;10.954;2024-02-28T02:07:58;29.27;27.38;38.25;;
63692;Laerm;49838;51.798;10.954;2024-02-28T02:10:25;29.25;27.81;32.48;;
63692;Laerm;49838;51.798;10.954;2024-02-28T02:12:53;29.73;27.60;35.85;;
63692;Laerm;49838;51.798;10.954;2024-02-28T02:15:20;28.83;27.22;30.87;;
63692;Laerm;49838;51.798;10.954;2024-02-28T02:17:47;28.91;27.20;33.15;;
63692;Laerm;49838;51.798;10.954;2024-02-28T02:20:16;29.40;27.50;35.53;;
63692;Laerm;49838;51.798;10.954;2024-02-28T02:22:46;29.51;27.12;38.84;;
63692;Laerm;49838;51.798;10.954;2024-02-28T02:25:14;30.28;27.77;37.53;;
63692;Laerm;49838;51.798;10.954;2024-02-28T02:27:41;30.02;27.73;38.66;;
63692;Laerm;49838;51.798;10.954;2024-02-28T02:30:09;29.69;28.01;33.78;;
63692;Laerm;49838;51.798;10.954;2024-02-28T02:32:37;29.45;27.39;32.79;;
63692;Laerm;49838;51.798;10.954;2024-02-28T02:35:04;29.66;27.47;40.47;;
63692;Laerm;49838;51.798;10.954;2024-02-28T02:37:32;29.36;27.14;37.47;;
63692;Laerm;49838;51.798;10.954;2024-02-28T02:40:01;30.07;26.86;36.75;;
63692;Laerm;49838;51.798;10.954;2024-02-28T02:42:28;29.32;27.40;32.49;;
63692;Laerm;49838;51.798;10.954;2024-02-28T02:44:55;28.73;27.00;34.22;;
63692;Laerm;49838;51.798;10.954;2024-02-28T02:47:23;31.58;27.89;42.12;;
63692;Laerm;49838;51.798;10.954;2024-02-28T02:49:50;29.82;27.44;35.51;;
63692;Laerm;49838;51.798;10.954;2024-02-28T02:52:17;29.36;27.24;36.49;;
63692;Laerm;49838;51.798;10.954;2024-02-28T02:54:44;29.18;27.13;34.59;;
63692;Laerm;49838;51.798;10.954;2024-02-28T02:57:13;30.02;27.73;40.22;;
63692;Laerm;49838;51.798;10.954;2024-02-28T02:59:40;29.41;27.41;38.27;;
63692;Laerm;49838;51.798;10.954;2024-02-28T03:02:07;29.23;26.69;35.80;;
63692;Laerm;49838;51.798;10.954;2024-02-28T03:04:34;31.44;27.26;39.12;;
63692;Laerm;49838;51.798;10.954;2024-02-28T03:07:02;32.42;27.37;41.23;;
63692;Laerm;49838;51.798;10.954;2024-02-28T03:09:29;31.24;27.32;39.53;;
63692;Laerm;49838;51.798;10.954;2024-02-28T03:11:56;29.27;27.31;34.78;;
63692;Laerm;49838;51.798;10.954;2024-02-28T03:14:25;31.24;28.00;40.15;;
63692;Laerm;49838;51.798;10.954;2024-02-28T03:16:53;30.06;27.54;35.74;;
63692;Laerm;49838;51.798;10.954;2024-02-28T03:19:20;29.79;27.80;44.60;;
63692;Laerm;49838;51.798;10.954;2024-02-28T03:21:48;50.56;27.62;67.47;;
63692;Laerm;49838;51.798;10.954;2024-02-28T03:24:15;31.46;28.05;40.00;;
63692;Laerm;49838;51.798;10.954;2024-02-28T03:26:43;32.20;28.70;48.37;;
63692;Laerm;49838;51.798;10.954;2024-02-28T03:29:10;32.11;28.32;43.45;;
63692;Laerm;49838;51.798;10.954;2024-02-28T03:31:39;31.80;28.81;47.18;;
63692;Laerm;49838;51.798;10.954;2024-02-28T03:34:06;31.18;28.52;45.10;;
63692;Laerm;49838;51.798;10.954;2024-02-28T03:36:34;36.91;29.91;57.03;;
63692;Laerm;49838;51.798;10.954;2024-02-28T03:39:02;32.69;28.55;52.58;;
63692;Laerm;49838;51.798;10.954;2024-02-28T03:41:30;34.75;28.34;48.87;;
63692;Laerm;49838;51.798;10.954;2024-02-28T03:43:58;32.92;28.02;51.81;;
63692;Laerm;49838;51.798;10.954;2024-02-28T03:46:25;35.55;28.40;63.67;;
63692;Laerm;49838;51.798;10.954;2024-02-28T03:48:53;31.33;27.55;50.30;;
63692;Laerm;49838;51.798;10.954;2024-02-28T03:51:21;32.37;28.06;50.72;;
63692;Laerm;49838;51.798;10.954;2024-02-28T03:53:48;33.45;28.70;40.00;;
63692;Laerm;49838;51.798;10.954;2024-02-28T03:56:21;32.10;28.97;38.75;;
63692;Laerm;49838;51.798;10.954;2024-02-28T03:58:49;31.37;28.19;48.87;;
63692;Laerm;49838;51.798;10.954;2024-02-28T04:01:16;30.90;28.19;39.96;;
63692;Laerm;49838;51.798;10.954;2024-02-28T04:03:45;34.61;29.24;43.82;;
63692;Laerm;49838;51.798;10.954;2024-02-28T04:06:13;35.78;32.61;43.23;;
63692;Laerm;49838;51.798;10.954;2024-02-28T04:08:41;36.58;33.20;42.15;;
63692;Laerm;49838;51.798;10.954;2024-02-28T04:11:08;41.70;33.77;56.06;;
63692;Laerm;49838;51.798;10.954;2024-02-28T04:13:35;38.86;33.88;62.90;;
63692;Laerm;49838;51.798;10.954;2024-02-28T04:16:03;50.28;33.87;69.57;;
63692;Laerm;49838;51.798;10.954;2024-02-28T04:18:30;50.74;30.84;68.62;;
63692;Laerm;49838;51.798;10.954;2024-02-28T04:20:58;35.19;31.27;41.94;;
63692;Laerm;49838;51.798;10.954;2024-02-28T04:23:26;54.89;32.68;71.92;;
63692;Laerm;49838;51.798;10.954;2024-02-28T04:25:53;36.72;31.85;54.77;;
63692;Laerm;49838;51.798;10.954;2024-02-28T04:28:21;37.90;32.95;49.95;;
63692;Laerm;49838;51.798;10.954;2024-02-28T04:30:48;49.37;32.97;65.23;;
63692;Laerm;49838;51.798;10.954;2024-02-28T04:33:16;37.95;33.09;60.15;;
63692;Laerm;49838;51.798;10.954;2024-02-28T04:35:43;47.77;33.04;63.89;;
63692;Laerm;49838;51.798;10.954;2024-02-28T04:38:10;36.79;33.21;49.88;;
63692;Laerm;49838;51.798;10.954;2024-02-28T04:40:39;53.60;32.99;72.62;;
63692;Laerm;49838;51.798;10.954;2024-02-28T04:43:06;52.11;33.24;70.04;;
63692;Laerm;49838;51.798;10.954;2024-02-28T04:45:33;40.13;32.52;53.02;;
63692;Laerm;49838;51.798;10.954;2024-02-28T04:48:00;35.62;32.13;42.57;;
63692;Laerm;49838;51.798;10.954;2024-02-28T04:50:27;55.45;32.10;74.14;;
63692;Laerm;49838;51.798;10.954;2024-02-28T04:52:55;39.32;32.52;54.79;;
63692;Laerm;49838;51.798;10.954;2024-02-28T04:55:22;56.81;35.17;76.22;;
63692;Laerm;49838;51.798;10.954;2024-02-28T04:57:51;42.42;33.52;60.51;;
63692;Laerm;49838;51.798;10.954;2024-02-28T05:00:19;54.23;34.50;73.63;;
63692;Laerm;49838;51.798;10.954;2024-02-28T05:02:46;46.66;34.68;68.22;;
63692;Laerm;49838;51.798;10.954;2024-02-28T05:05:13;53.66;33.89;82.25;;
63692;Laerm;49838;51.798;10.954;2024-02-28T05:07:40;47.25;40.18;65.01;;
63692;Laerm;49838;51.798;10.954;2024-02-28T05:10:08;42.48;32.84;57.72;;
63692;Laerm;49838;51.798;10.954;2024-02-28T05:12:35;40.27;33.17;57.49;;
63692;Laerm;49838;51.798;10.954;2024-02-28T05:15:05;56.67;33.50;72.38;;
63692;Laerm;49838;51.798;10.954;2024-02-28T05:17:32;53.62;34.20;70.79;;
63692;Laerm;49838;51.798;10.954;2024-02-28T05:20:00;40.53;33.48;52.69;;
63692;Laerm;49838;51.798;10.954;2024-02-28T05:22:27;52.82;34.24;67.38;;
63692;Laerm;49838;51.798;10.954;2024-02-28T05:24:54;50.28;35.55;67.50;;
63692;Laerm;49838;51.798;10.954;2024-02-28T05:27:21;55.89;35.31;69.13;;
63692;Laerm;49838;51.798;10.954;2024-02-28T05:29:49;56.54;35.05;73.87;;
63692;Laerm;49838;51.798;10.954;2024-02-28T05:32:17;57.42;34.31;73.31;;
63692;Laerm;49838;51.798;10.954;2024-02-28T05:34:45;58.38;38.19;74.28;;
63692;Laerm;49838;51.798;10.954;2024-02-28T05:37:12;52.12;35.08;70.30;;
63692;Laerm;49838;51.798;10.954;2024-02-28T05:39:40;57.66;38.28;76.43;;
63692;Laerm;49838;51.798;10.954;2024-02-28T05:42:07;53.62;41.95;69.24;;
63692;Laerm;49838;51.798;10.954;2024-02-28T05:44:35;57.11;37.86;73.73;;
63692;Laerm;49838;51.798;10.954;2024-02-28T05:47:02;56.68;36.45;74.52;;
63692;Laerm;49838;51.798;10.954;2024-02-28T05:49:31;58.32;35.03;76.33;;
63692;Laerm;49838;51.798;10.954;2024-02-28T05:51:58;62.16;36.55;76.61;;
63692;Laerm;49838;51.798;10.954;2024-02-28T05:54:25;50.31;36.51;68.37;;
63692;Laerm;49838;51.798;10.954;2024-02-28T05:56:52;60.14;36.31;78.88;;
63692;Laerm;49838;51.798;10.954;2024-02-28T05:59:19;59.37;39.11;73.82;;
63692;Laerm;49838;51.798;10.954;2024-02-28T06:01:47;59.87;46.06;73.63;;
63692;Laerm;49838;51.798;10.954;2024-02-28T06:04:14;52.07;45.83;69.80;;
63692;Laerm;49838;51.798;10.954;2024-02-28T06:06:42;60.73;46.14;76.94;;
63692;Laerm;49838;51.798;10.954;2024-02-28T06:09:10;57.25;46.34;71.64;;
63692;Laerm;49838;51.798;10.954;2024-02-28T06:11:37;59.89;45.33;75.29;;
63692;Laerm;49838;51.798;10.954;2024-02-28T06:14:05;57.67;37.60;72.07;;
63692;Laerm;49838;51.798;10.954;2024-02-28T06:16:32;57.34;37.49;71.30;;
63692;Laerm;49838;51.798;10.954;2024-02-28T06:18:59;59.20;38.15;77.79;;
63692;Laerm;49838;51.798;10.954;2024-02-28T06:21:26;63.83;37.57;83.48;;
63692;Laerm;49838;51.798;10.954;2024-02-28T06:23:55;59.74;38.28;72.20;;
63692;Laerm;49838;51.798;10.954;2024-02-28T06:26:23;59.60;38.20;74.64;;
63692;Laerm;49838;51.798;10.954;2024-02-28T06:28:50;58.77;36.32;72.04;;
63692;Laerm;49838;51.798;10.954;2024-02-28T06:31:19;57.84;35.74;73.79;;
63692;Laerm;49838;51.798;10.954;2024-02-28T06:33:46;63.82;42.24;79.86;;
63692;Laerm;49838;51.798;10.954;2024-02-28T06:36:14;59.11;39.05;73.76;;
63692;Laerm;49838;51.798;10.954;2024-02-28T06:38:41;56.32;36.28;71.41;;
63692;Laerm;49838;51.798;10.954;2024-02-28T06:41:10;59.68;39.51;75.99;;
63692;Laerm;49838;51.798;10.954;2024-02-28T06:43:37;61.19;39.18;76.64;;
63692;Laerm;49838;51.798;10.954;2024-02-28T06:46:04;55.24;38.98;71.50;;
63692;Laerm;49838;51.798;10.954;2024-02-28T06:48:31;57.54;38.31;70.39;;
63692;Laerm;49838;51.798;10.954;2024-02-28T06:50:59;57.04;37.29;74.75;;
63692;Laerm;49838;51.798;10.954;2024-02-28T06:53:26;56.98;38.13;73.68;;
63692;Laerm;49838;51.798;10.954;2024-02-28T06:55:53;57.50;38.56;72.38;;
63692;Laerm;49838;51.798;10.954;2024-02-28T06:58:22;62.06;37.03;75.39;;
63692;Laerm;49838;51.798;10.954;2024-02-28T07:00:50;59.29;38.32;74.23;;
63692;Laerm;49838;51.798;10.954;2024-02-28T07:03:18;61.23;36.82;74.56;;
63692;Laerm;49838;51.798;10.954;2024-02-28T07:05:45;52.49;34.70;71.60;;
63692;Laerm;49838;51.798;10.954;2024-02-28T07:08:13;55.14;35.06;71.09;;
63692;Laerm;49838;51.798;10.954;2024-02-28T07:10:40;58.71;36.20;74.22;;
63692;Laerm;49838;51.798;10.954;2024-02-28T07:13:09;55.56;37.16;72.77;;
63692;Laerm;49838;51.798;10.954;2024-02-28T07:15:38;55.45;35.15;69.49;;
63692;Laerm;49838;51.798;10.954;2024-02-28T07:18:06;55.58;35.75;72.88;;
63692;Laerm;49838;51.798;10.954;2024-02-28T07:20:33;57.58;34.52;73.92;;
63692;Laerm;49838;51.798;10.954;2024-02-28T07:23:00;59.06;36.91;71.60;;
63692;Laerm;49838;51.798;10.954;2024-02-28T07:25:28;54.46;37.39;71.27;;
63692;Laerm;49838;51.798;10.954;2024-02-28T07:27:56;60.47;40.76;76.58;;
63692;Laerm;49838;51.798;10.954;2024-02-28T07:30:24;58.25;38.58;75.28;;
63692;Laerm;49838;51.798;10.954;2024-02-28T07:32:52;53.83;38.43;71.19;;
63692;Laerm;49838;51.798;10.954;2024-02-28T07:35:20;59.15;40.14;72.53;;
63692;Laerm;49838;51.798;10.954;2024-02-28T07:37:49;55.39;38.01;69.69;;
63692;Laerm;49838;51.798;10.954;2024-02-28T07:40:17;54.85;41.39;68.70;;
63692;Laerm;49838;51.798;10.954;2024-02-28T07:42:44;57.33;44.61;73.34;;
63692;Laerm;49838;51.798;10.954;2024-02-28T07:45:11;58.27;40.55;74.15;;
63692;Laerm;49838;51.798;10.954;2024-02-28T07:47:39;40.92;35.58;64.55;;
63692;Laerm;49838;51.798;10.954;2024-02-28T07:50:08;58.69;37.09;74.53;;
63692;Laerm;49838;51.798;10.954;2024-02-28T07:52:36;49.81;36.46;66.86;;
63692;Laerm;49838;51.798;10.954;2024-02-28T07:55:05;59.84;42.68;78.19;;
63692;Laerm;49838;51.798;10.954;2024-02-28T07:57:32;59.36;39.78;79.09;;
63692;Laerm;49838;51.798;10.954;2024-02-28T08:00:00;58.79;40.55;73.28;;
63692;Laerm;49838;51.798;10.954;2024-02-28T08:02:27;56.26;40.10;71.84;;
63692;Laerm;49838;51.798;10.954;2024-02-28T08:04:54;53.07;40.14;68.81;;
63692;Laerm;49838;51.798;10.954;2024-02-28T08:07:23;57.12;40.46;73.04;;
63692;Laerm;49838;51.798;10.954;2024-02-28T08:09:50;59.23;40.93;73.31;;
63692;Laerm;49838;51.798;10.954;2024-02-28T08:12:17;53.82;40.42;67.71;;
63692;Laerm;49838;51.798;10.954;2024-02-28T08:14:44;62.67;41.43;79.45;;
63692;Laerm;49838;51.798;10.954;2024-02-28T08:17:12;58.74;40.52;75.10;;
63692;Laerm;49838;51.798;10.954;2024-02-28T08:19:41;60.89;39.81;79.25;;
63692;Laerm;49838;51.798;10.954;2024-02-28T08:22:08;60.25;40.35;78.46;;
63692;Laerm;49838;51.798;10.954;2024-02-28T08:24:38;62.77;43.66;80.05;;
63692;Laerm;49838;51.798;10.954;2024-02-28T08:27:05;66.63;51.71;89.07;;
63692;Laerm;49838;51.798;10.954;2024-02-28T08:29:33;63.36;40.61;79.58;;
63692;Laerm;49838;51.798;10.954;2024-02-28T08:32:01;52.38;40.32;70.42;;
63692;Laerm;49838;51.798;10.954;2024-02-28T08:34:29;57.86;39.85;74.33;;
63692;Laerm;49838;51.798;10.954;2024-02-28T08:36:56;59.55;41.33;74.25;;
63692;Laerm;49838;51.798;10.954;2024-02-28T08:39:24;52.10;40.64;68.87;;
63692;Laerm;49838;51.798;10.954;2024-02-28T08:41:52;65.99;38.74;85.12;;
63692;Laerm;49838;51.798;10.954;2024-02-28T08:44:19;61.66;37.15;78.39;;
63692;Laerm;49838;51.798;10.954;2024-02-28T08:46:47;54.58;36.07;70.58;;
63692;Laerm;49838;51.798;10.954;2024-02-28T08:49:15;56.59;39.60;71.35;;
63692;Laerm;49838;51.798;10.954;2024-02-28T08:51:43;62.79;42.49;74.76;;
63692;Laerm;49838;51.798;10.954;2024-02-28T08:54:10;58.03;35.03;71.96;;
63692;Laerm;49838;51.798;10.954;2024-02-28T08:56:37;54.07;35.03;69.77;;
63692;Laerm;49838;51.798;10.954;2024-02-28T08:59:06;59.93;40.43;73.61;;
63692;Laerm;49838;51.798;10.954;2024-02-28T09:01:33;60.26;38.96;73.96;;
63692;Laerm;49838;51.798;10.954;2024-02-28T09:04:02;65.65;35.80;84.65;;
63692;Laerm;49838;51.798;10.954;2024-02-28T09:06:29;58.49;35.99;71.67;;
63692;Laerm;49838;51.798;10.954;2024-02-28T09:08:56;56.22;35.44;70.85;;
63692;Laerm;49838;51.798;10.954;2024-02-28T09:11:24;56.08;35.80;74.68;;
63692;Laerm;49838;51.798;10.954;2024-02-28T09:13:52;60.43;37.74;75.18;;
63692;Laerm;49838;51.798;10.954;2024-02-28T09:16:20;57.64;35.66;72.29;;
63692;Laerm;49838;51.798;10.954;2024-02-28T09:18:48;56.81;35.77;74.84;;
63692;Laerm;49838;51.798;10.954;2024-02-28T09:21:15;57.30;37.78;71.35;;
63692;Laerm;49838;51.798;10.954;2024-02-28T09:23:42;59.23;38.85;73.48;;
63692;Laerm;49838;51.798;10.954;2024-02-28T09:26:09;60.28;40.22;75.40;;
63692;Laerm;49838;51.798;10.954;2024-02-28T09:28:37;55.80;40.67;69.23;;
63692;Laerm;49838;51.798;10.954;2024-02-28T09:31:04;57.53;37.79;69.30;;
63692;Laerm;49838;51.798;10.954;2024-02-28T09:33:32;63.40;37.28;80.46;;
63692;Laerm;49838;51.798;10.954;2024-02-28T09:36:01;58.08;43.41;70.08;;
63692;Laerm;49838;51.798;10.954;2024-02-28T09:38:28;68.29;47.72;84.00;;
63692;Laerm;49838;51.798;10.954;2024-02-28T09:40:58;64.65;47.36;75.62;;
63692;Laerm;49838;51.798;10.954;2024-02-28T09:43:29;57.89;38.09;73.99;;
63692;Laerm;49838;51.798;10.954;2024-02-28T09:45:59;53.67;38.81;69.77;;
63692;Laerm;49838;51.798;10.954;2024-02-28T09:48:27;65.14;39.37;84.85;;
63692;Laerm;49838;51.798;10.954;2024-02-28T09:50:57;59.69;36.92;71.44;;
63692;Laerm;49838;51.798;10.954;2024-02-28T09:53:24;59.26;35.93;72.02;;
63692;Laerm;49838;51.798;10.954;2024-02-28T09:55:52;55.55;37.37;71.35;;
63692;Laerm;49838;51.798;10.954;2024-02-28T09:58:19;56.25;36.30;71.04;;
63692;Laerm;49838;51.798;10.954;2024-02-28T10:00:48;57.62;35.36;71.50;;
63692;Laerm;49838;51.798;10.954;2024-02-28T10:03:18;58.36;35.02;73.73;;
63692;Laerm;49838;51.798;10.954;2024-02-28T10:05:46;64.16;36.12;83.40;;
63692;Laerm;49838;51.798;10.954;2024-02-28T10:08:15;55.01;36.40;69.12;;
63692;Laerm;49838;51.798;10.954;2024-02-28T10:10:46;59.61;37.38;74.85;;
63692;Laerm;49838;51.798;10.954;2024-02-28T10:13:15;54.53;34.99;71.33;;
63692;Laerm;49838;51.798;10.954;2024-02-28T10:15:43;59.20;35.95;72.20;;
63692;Laerm;49838;51.798;10.954;2024-02-28T10:18:10;53.30;36.94;68.70;;
63692;Laerm;49838;51.798;10.954;2024-02-28T10:20:38;57.20;36.26;70.32;;
63692;Laerm;49838;51.798;10.954;2024-02-28T10:23:05;60.27;36.75;79.38;;
63692;Laerm;49838;51.798;10.954;2024-02-28T10:25:42;58.01;38.62;76.26;;
63692;Laerm;49838;51.798;10.954;2024-02-28T10:28:11;62.73;40.37;78.45;;
63692;Laerm;49838;51.798;10.954;2024-02-28T10:30:40;58.57;37.96;75.53;;
63692;Laerm;49838;51.798;10.954;2024-02-28T10:33:12;59.16;38.54;74.03;;
63692;Laerm;49838;51.798;10.954;2024-02-28T10:35:40;63.92;41.29;80.94;;
63692;Laerm;49838;51.798;10.954;2024-02-28T10:38:10;52.23;38.25;72.25;;
63692;Laerm;49838;51.798;10.954;2024-02-28T10:40:38;58.43;38.87;72.10;;
63692;Laerm;49838;51.798;10.954;2024-02-28T10:43:11;58.22;39.67;74.45;;
63692;Laerm;49838;51.798;10.954;2024-02-28T10:45:39;64.85;41.60;84.33;;
63692;Laerm;49838;51.798;10.954;2024-02-28T10:48:07;58.90;37.91;80.73;;
63692;Laerm;49838;51.798;10.954;2024-02-28T10:50:38;57.17;38.21;73.12;;
63692;Laerm;49838;51.798;10.954;2024-02-28T10:53:12;54.01;37.76;70.54;;
63692;Laerm;49838;51.798;10.954;2024-02-28T10:55:41;59.04;36.32;75.54;;
63692;Laerm;49838;51.798;10.954;2024-02-28T10:58:11;52.16;35.44;67.29;;
63692;Laerm;49838;51.798;10.954;2024-02-28T11:00:40;51.41;35.43;66.76;;
63692;Laerm;49838;51.798;10.954;2024-02-28T11:03:16;62.40;41.60;86.61;;
63692;Laerm;49838;51.798;10.954;2024-02-28T11:05:44;59.85;35.89;75.82;;
63692;Laerm;49838;51.798;10.954;2024-02-28T11:08:20;49.34;36.47;65.05;;
63692;Laerm;49838;51.798;10.954;2024-02-28T11:10:54;56.88;35.86;73.88;;
63692;Laerm;49838;51.798;10.954;2024-02-28T11:13:24;62.94;36.60;81.65;;
63692;Laerm;49838;51.798;10.954;2024-02-28T11:15:53;64.21;35.78;84.88;;
63692;Laerm;49838;51.798;10.954;2024-02-28T11:18:21;55.53;38.48;73.62;;
63692;Laerm;49838;51.798;10.954;2024-02-28T11:20:48;60.41;37.45;73.84;;
63692;Laerm;49838;51.798;10.954;2024-02-28T11:23:17;55.84;36.02;72.01;;
63692;Laerm;49838;51.798;10.954;2024-02-28T11:25:45;58.82;37.31;72.27;;
63692;Laerm;49838;51.798;10.954;2024-02-28T11:28:12;57.46;36.53;71.60;;
63692;Laerm;49838;51.798;10.954;2024-02-28T11:30:41;56.85;36.52;73.50;;
63692;Laerm;49838;51.798;10.954;2024-02-28T11:33:08;58.93;36.68;75.29;;
63692;Laerm;49838;51.798;10.954;2024-02-28T11:35:36;62.31;40.26;78.16;;
63692;Laerm;49838;51.798;10.954;2024-02-28T11:38:06;58.13;36.40;73.15;;
63692;Laerm;49838;51.798;10.954;2024-02-28T11:40:33;60.35;40.04;73.88;;
63692;Laerm;49838;51.798;10.954;2024-02-28T11:43:00;63.56;37.74;84.10;;
63692;Laerm;49838;51.798;10.954;2024-02-28T11:45:29;56.62;35.97;75.30;;
63692;Laerm;49838;51.798;10.954;2024-02-28T11:47:58;56.86;36.77;72.91;;
63692;Laerm;49838;51.798;10.954;2024-02-28T11:50:28;58.33;36.34;72.60;;
63692;Laerm;49838;51.798;10.954;2024-02-28T11:52:56;57.66;36.62;73.91;;
63692;Laerm;49838;51.798;10.954;2024-02-28T11:55:24;57.12;38.54;73.85;;
63692;Laerm;49838;51.798;10.954;2024-02-28T11:57:52;57.99;37.53;73.45;;
63692;Laerm;49838;51.798;10.954;2024-02-28T12:00:19;49.57;38.65;64.78;;
63692;Laerm;49838;51.798;10.954;2024-02-28T12:02:46;57.71;38.02;72.25;;
63692;Laerm;49838;51.798;10.954;2024-02-28T12:05:15;56.31;38.03;70.72;;
63692;Laerm;49838;51.798;10.954;2024-02-28T12:07:43;59.60;38.11;73.23;;
63692;Laerm;49838;51.798;10.954;2024-02-28T12:10:10;57.69;39.38;73.16;;
63692;Laerm;49838;51.798;10.954;2024-02-28T12:12:38;55.34;39.32;70.37;;
63692;Laerm;49838;51.798;10.954;2024-02-28T12:15:10;53.94;37.53;73.95;;
63692;Laerm;49838;51.798;10.954;2024-02-28T12:17:37;63.58;42.47;83.48;;
63692;Laerm;49838;51.798;10.954;2024-02-28T12:20:06;59.46;40.56;72.47;;
63692;Laerm;49838;51.798;10.954;2024-02-28T12:22:34;49.44;37.98;64.21;;
63692;Laerm;49838;51.798;10.954;2024-02-28T12:25:02;55.97;38.24;75.97;;
63692;Laerm;49838;51.798;10.954;2024-02-28T12:27:30;56.81;37.24;69.53;;
63692;Laerm;49838;51.798;10.954;2024-02-28T12:29:58;57.49;39.35;72.12;;
63692;Laerm;49838;51.798;10.954;2024-02-28T12:32:25;53.10;39.14;69.84;;
63692;Laerm;49838;51.798;10.954;2024-02-28T12:34:52;61.48;41.16;76.25;;
63692;Laerm;49838;51.798;10.954;2024-02-28T12:37:20;58.09;38.50;77.55;;
63692;Laerm;49838;51.798;10.954;2024-02-28T12:39:48;57.72;39.28;76.71;;
63692;Laerm;49838;51.798;10.954;2024-02-28T12:42:17;57.45;37.37;73.47;;
63692;Laerm;49838;51.798;10.954;2024-02-28T12:44:44;59.45;36.87;80.82;;
63692;Laerm;49838;51.798;10.954;2024-02-28T12:47:12;60.10;38.95;78.89;;
63692;Laerm;49838;51.798;10.954;2024-02-28T12:49:40;61.50;40.05;79.03;;
63692;Laerm;49838;51.798;10.954;2024-02-28T12:52:07;57.71;39.69;83.20;;
63692;Laerm;49838;51.798;10.954;2024-02-28T12:54:34;60.87;35.91;80.77;;
63692;Laerm;49838;51.798;10.954;2024-02-28T12:57:03;52.27;35.78;70.03;;
63692;Laerm;49838;51.798;10.954;2024-02-28T12:59:32;56.92;35.96;81.80;;
63692;Laerm;49838;51.798;10.954;2024-02-28T13:01:59;53.94;37.22;69.35;;
63692;Laerm;49838;51.798;10.954;2024-02-28T13:04:27;58.84;36.73;73.00;;
63692;Laerm;49838;51.798;10.954;2024-02-28T13:06:55;55.22;38.14;69.94;;
63692;Laerm;49838;51.798;10.954;2024-02-28T13:09:22;58.07;38.09;70.79;;
63692;Laerm;49838;51.798;10.954;2024-02-28T13:11:52;44.46;35.82;66.18;;
63692;Laerm;49838;51.798;10.954;2024-02-28T13:14:20;41.46;36.53;56.85;;
63692;Laerm;49838;51.798;10.954;2024-02-28T13:16:48;56.01;37.36;71.08;;
63692;Laerm;49838;51.798;10.954;2024-02-28T13:19:18;51.22;37.67;65.97;;
63692;Laerm;49838;51.798;10.954;2024-02-28T13:21:45;58.62;38.25;73.34;;
63692;Laerm;49838;51.798;10.954;2024-02-28T13:24:13;58.83;37.74;74.57;;
63692;Laerm;49838;51.798;10.954;2024-02-28T13:26:41;50.74;37.73;69.85;;
63692;Laerm;49838;51.798;10.954;2024-02-28T13:29:08;48.45;35.43;67.32;;
63692;Laerm;49838;51.798;10.954;2024-02-28T13:31:37;61.34;36.83;82.70;;
63692;Laerm;49838;51.798;10.954;2024-02-28T13:34:04;67.87;36.95;95.88;;
63692;Laerm;49838;51.798;10.954;2024-02-28T13:36:31;57.98;36.75;75.64;;